createdAt,value
2023-11-09T00:02:27.523Z,4.40
2023-11-09T00:07:44.764Z,5.00
2023-11-09T00:13:09.171Z,5.00
2023-11-09T00:18:13.062Z,4.90
2023-11-09T00:23:17.090Z,4.90
2023-11-09T00:28:20.964Z,4.60
2023-11-09T00:33:24.950Z,5.10
2023-11-09T00:38:28.764Z,4.10
2023-11-09T00:43:34.262Z,4.20
2023-11-09T00:48:38.216Z,5.60
2023-11-09T00:53:44.676Z,4.60
2023-11-09T00:58:48.782Z,4.20
2023-11-09T01:08:58.259Z,6.20
2023-11-09T01:14:02.093Z,4.00
2023-11-09T01:19:06.504Z,3.70
2023-11-09T01:24:10.170Z,3.60
2023-11-09T01:29:15.300Z,4.10
2023-11-09T01:34:41.842Z,4.50
2023-11-09T01:39:46.501Z,4.80
2023-11-09T01:45:11.440Z,3.80
2023-11-09T01:50:20.067Z,3.40
2023-11-09T01:55:35.464Z,3.70
2023-11-09T02:00:43.384Z,4.10
2023-11-09T02:05:51.164Z,3.90
2023-11-09T02:10:54.910Z,4.70
2023-11-09T02:15:58.566Z,2.80
2023-11-09T02:21:02.367Z,3.80
2023-11-09T02:26:06.790Z,3.60
2023-11-09T02:36:14.488Z,3.50
2023-11-09T02:41:23.784Z,3.40
2023-11-09T02:46:45.733Z,3.70
2023-11-09T02:51:58.519Z,4.50
2023-11-09T02:57:02.606Z,4.50
2023-11-09T03:02:09.806Z,6.30
2023-11-09T03:07:46.761Z,5.20
2023-11-09T03:13:13.480Z,5.80
2023-11-09T03:18:17.567Z,6.10
2023-11-09T03:23:25.204Z,5.40
2023-11-09T03:28:29.170Z,6.30
2023-11-09T03:33:33.630Z,6.60
2023-11-09T03:43:56.899Z,6.40
2023-11-09T03:49:00.773Z,6.80
2023-11-09T03:54:04.937Z,6.90
2023-11-09T03:59:09.479Z,5.70
2023-11-09T04:04:16.336Z,7.00
2023-11-09T04:09:43.155Z,7.60
2023-11-09T04:14:50.254Z,7.50
2023-11-09T04:20:03.826Z,7.60
2023-11-09T04:25:17.469Z,8.90
2023-11-09T04:30:21.980Z,10.20
2023-11-09T04:35:57.360Z,11.30
2023-11-09T04:41:23.390Z,14.90
2023-11-09T04:46:41.826Z,14.50
2023-11-09T04:52:06.707Z,15.10
2023-11-09T05:02:53.075Z,15.40
2023-11-09T05:07:57.056Z,14.20
2023-11-09T05:13:01.014Z,16.90
2023-11-09T05:18:04.754Z,13.40
2023-11-09T05:23:30.083Z,12.20
2023-11-09T05:28:37.391Z,16.50
2023-11-09T05:33:41.387Z,15.30
2023-11-09T05:38:45.858Z,14.50
2023-11-09T05:43:49.509Z,14.90
2023-11-09T05:48:53.448Z,16.30
2023-11-09T05:53:58.750Z,15.50
2023-11-09T05:59:12.940Z,15.60
2023-11-09T06:04:16.676Z,15.40
2023-11-09T06:09:20.989Z,14.40
2023-11-09T06:19:29.179Z,14.10
2023-11-09T06:24:32.974Z,11.40
2023-11-09T06:29:37.000Z,9.90
2023-11-09T06:34:41.178Z,10.50
2023-11-09T06:39:47.920Z,10.30
2023-11-09T06:44:54.106Z,8.80
2023-11-09T06:49:57.937Z,10.30
2023-11-09T06:55:02.158Z,9.50
2023-11-09T07:00:11.630Z,21.70
2023-11-09T07:05:15.581Z,12.00
2023-11-09T07:10:21.837Z,18.10
2023-11-09T07:15:27.911Z,12.80
2023-11-09T07:20:32.640Z,9.60
2023-11-09T07:25:38.423Z,10.90
2023-11-09T07:30:42.435Z,9.30
2023-11-09T07:35:48.823Z,8.10
2023-11-09T07:40:52.577Z,7.00
2023-11-09T07:45:56.517Z,7.70
2023-11-09T07:51:12.074Z,9.40
2023-11-09T07:56:16.029Z,8.60
2023-11-09T08:01:19.830Z,10.20
2023-11-09T08:06:24.366Z,7.80
2023-11-09T08:11:28.386Z,8.00
2023-11-09T08:16:33.139Z,8.10
2023-11-09T08:21:37.763Z,7.90
2023-11-09T08:26:42.838Z,6.80
2023-11-09T08:31:46.877Z,7.80
2023-11-09T08:36:50.696Z,7.10
2023-11-09T08:41:55.667Z,5.80
2023-11-09T08:47:02.384Z,6.90
2023-11-09T08:52:06.380Z,7.80
2023-11-09T08:57:10.068Z,5.90
2023-11-09T09:02:13.786Z,5.80
2023-11-09T09:07:17.516Z,6.40
2023-11-09T09:12:21.645Z,5.10
2023-11-09T09:17:27.095Z,5.60
2023-11-09T09:22:30.742Z,5.00
2023-11-09T09:27:35.159Z,5.50
2023-11-09T09:37:47.215Z,6.10
2023-11-09T09:42:53.810Z,4.80
2023-11-09T09:48:07.201Z,3.70
2023-11-09T09:53:11.625Z,4.20
2023-11-09T09:58:20.456Z,4.70
2023-11-09T10:03:27.155Z,3.60
2023-11-09T10:08:31.564Z,2.80
2023-11-09T10:18:40.854Z,2.50
2023-11-09T10:23:54.680Z,1.90
2023-11-09T10:28:58.831Z,2.50
2023-11-09T10:39:17.572Z,3.60
2023-11-09T10:44:24.232Z,2.80
2023-11-09T10:49:28.805Z,3.50
2023-11-09T10:54:34.316Z,3.10
2023-11-09T10:59:43.255Z,2.90
2023-11-09T11:04:57.462Z,4.90
2023-11-09T11:10:03.232Z,2.90
2023-11-09T11:15:12.096Z,4.70
2023-11-09T11:20:29.945Z,2.90
2023-11-09T11:25:40.130Z,3.20
2023-11-09T11:30:44.319Z,2.60
2023-11-09T11:41:01.622Z,2.90
2023-11-09T11:46:23.585Z,2.90
2023-11-09T11:51:29.102Z,3.00
2023-11-09T11:56:34.680Z,2.80
2023-11-09T12:01:42.095Z,2.80
2023-11-09T12:06:49.540Z,2.70
2023-11-09T12:11:56.888Z,2.70
2023-11-09T12:17:00.334Z,4.30
2023-11-09T12:22:04.135Z,2.40
2023-11-09T12:27:11.196Z,6.70
2023-11-09T12:32:14.957Z,2.90
2023-11-09T12:37:19.805Z,3.00
2023-11-09T12:42:26.940Z,6.90
2023-11-09T12:47:32.200Z,2.40
2023-11-09T12:52:36.791Z,4.40
2023-11-09T12:57:58.446Z,3.50
2023-11-09T13:03:11.155Z,2.70
2023-11-09T13:08:14.875Z,3.20
2023-11-09T13:13:26.387Z,2.80
2023-11-09T13:18:30.142Z,3.00
2023-11-09T13:23:35.994Z,4.10
2023-11-09T13:28:40.183Z,6.80
2023-11-09T13:33:46.849Z,3.40
2023-11-09T13:38:56.603Z,5.50
2023-11-09T13:44:01.968Z,6.20
2023-11-09T13:49:20.740Z,5.90
2023-11-09T13:54:32.108Z,6.10
2023-11-09T13:59:44.318Z,5.60
2023-11-09T14:05:00.140Z,5.80
2023-11-09T14:10:15.851Z,4.50
2023-11-09T14:15:27.191Z,5.10
2023-11-09T14:20:32.417Z,4.80
2023-11-09T14:25:40.911Z,5.10
2023-11-09T14:30:53.555Z,7.00
2023-11-09T14:36:00.041Z,5.50
2023-11-09T14:41:14.217Z,4.00
2023-11-09T14:46:22.291Z,4.60
2023-11-09T14:51:29.870Z,5.40
2023-11-09T14:56:33.810Z,4.90
2023-11-09T15:01:37.743Z,5.40
2023-11-09T15:06:41.683Z,5.50
2023-11-09T15:11:51.461Z,5.30
2023-11-09T15:16:55.296Z,5.20
2023-11-09T15:22:00.572Z,5.50
2023-11-09T15:27:19.210Z,5.90
2023-11-09T15:32:27.741Z,5.80
2023-11-09T15:37:32.786Z,5.40
2023-11-09T15:42:38.262Z,6.10
2023-11-09T15:47:44.244Z,5.80
2023-11-09T15:52:52.204Z,6.40
2023-11-09T15:58:00.826Z,6.30
2023-11-09T16:03:04.820Z,6.60
2023-11-09T16:08:09.730Z,6.20
2023-11-09T16:13:13.415Z,7.40
2023-11-09T16:18:17.473Z,7.40
2023-11-09T16:28:32.524Z,7.20
2023-11-09T16:33:36.614Z,6.40
2023-11-09T16:38:40.538Z,6.60
2023-11-09T16:43:47.036Z,5.90
2023-11-09T16:48:51.039Z,9.80
2023-11-09T16:53:57.258Z,10.30
2023-11-09T16:59:11.326Z,10.70
2023-11-09T17:04:15.454Z,18.70
2023-11-09T17:09:20.006Z,12.00
2023-11-09T17:14:23.533Z,11.10
2023-11-09T17:19:28.510Z,8.00
2023-11-09T17:24:32.755Z,7.20
2023-11-09T17:34:49.179Z,7.90
2023-11-09T17:39:52.857Z,6.10
2023-11-09T17:44:56.915Z,6.40
2023-11-09T17:50:00.689Z,6.00
2023-11-09T17:55:08.045Z,6.70
2023-11-09T18:00:15.353Z,7.30
2023-11-09T18:05:19.302Z,7.50
2023-11-09T18:10:24.486Z,7.30
2023-11-09T18:15:28.118Z,6.80
2023-11-09T18:20:38.137Z,6.90
2023-11-09T18:25:42.162Z,5.10
2023-11-09T18:30:45.761Z,6.50
2023-11-09T18:35:51.561Z,9.10
2023-11-09T18:40:55.550Z,6.20
2023-11-09T18:46:00.345Z,6.90
2023-11-09T18:56:11.258Z,7.20
2023-11-09T19:01:14.980Z,6.70
2023-11-09T19:06:31.085Z,6.80
2023-11-09T19:11:34.984Z,11.20
2023-11-09T19:16:39.221Z,9.30
2023-11-09T19:26:49.941Z,6.60
2023-11-09T19:31:53.853Z,7.60
2023-11-09T19:36:57.537Z,5.20
2023-11-09T19:42:01.377Z,5.50
2023-11-09T19:47:06.040Z,6.60
2023-11-09T19:52:10.226Z,6.00
2023-11-09T19:57:14.209Z,5.90
2023-11-09T20:02:18.892Z,6.00
2023-11-09T20:07:22.827Z,4.90
2023-11-09T20:12:26.467Z,4.60
2023-11-09T20:17:30.213Z,5.50
2023-11-09T20:22:35.123Z,6.80
2023-11-09T20:27:40.076Z,6.50
2023-11-09T20:32:44.291Z,7.40
2023-11-09T20:37:48.039Z,5.50
2023-11-09T20:42:51.606Z,5.40
2023-11-09T20:47:55.598Z,3.70
2023-11-09T20:52:59.545Z,5.50
2023-11-09T20:58:03.344Z,6.60
2023-11-09T21:03:08.815Z,5.80
2023-11-09T21:08:12.840Z,6.00
2023-11-09T21:13:19.212Z,8.20
2023-11-09T21:18:22.949Z,6.60
2023-11-09T21:23:28.811Z,6.10
2023-11-09T21:28:32.323Z,6.70
2023-11-09T21:33:37.188Z,6.10
2023-11-09T21:38:44.275Z,5.80
2023-11-09T21:43:48.511Z,5.80
2023-11-09T21:53:58.506Z,5.90
2023-11-09T21:59:02.242Z,7.20
2023-11-09T22:04:06.478Z,4.50
2023-11-09T22:09:13.413Z,7.20
2023-11-09T22:14:17.593Z,6.40
2023-11-09T22:19:22.451Z,6.20
2023-11-09T22:24:30.191Z,6.60
